Time;durP1;ratioP1;P1;durP2;ratioP2;P2;SDS_P1;SDS_P2;PMS_P1;PMS_P2;Temp;Humidity;BMP_temperature;BMP_pressure;BME280_temperature;BME280_humidity;BME280_pressure;Samples;Min_cycle;Max_cycle;Signal;HPM_P1;HPM_P2
2023/03/19 00:00:46;;;;;;;;;;;;;;;-0.70;88.01;97819.36;109768;1244;71582;-67
2023/03/19 00:03:37;;;;;;;;;;;;;;;-0.73;87.29;97817.54;109748;1244;69466;-68
2023/03/19 00:06:07;;;;;;;;;;;;;;;-0.73;86.96;97818.59;109783;1244;69542;-68
2023/03/19 00:08:36;;;;;;;;;;;;;;;-0.71;88.15;97814.92;110046;1244;59702;-68
2023/03/19 00:11:07;;;;;;;;;;;;;;;-0.67;89.24;97817.58;110044;1244;59716;-68
2023/03/19 00:13:35;;;;;;;;;;;;;;;-0.67;88.51;97818.46;110138;1241;70639;-68
2023/03/19 00:16:06;;;;;;;;;;;;;;;-0.68;87.28;97814.36;110092;1244;68271;-68
2023/03/19 00:18:35;;;;;;;;;;;;;;;-0.69;86.56;97812.50;109866;1244;68361;-68
2023/03/19 00:21:05;;;;;;;;;;;;;;;-0.68;85.76;97809.94;110025;1244;59696;-68
2023/03/19 00:23:35;;;;;;;;;;;;;;;-0.69;86.30;97812.66;109897;1244;59768;-68
2023/03/19 00:26:05;;;;;;;;;;;;;;;-0.70;85.55;97809.94;110000;1245;71265;-68
2023/03/19 00:28:36;;;;;;;;;;;;;;;-0.71;85.60;97810.98;110015;1244;69231;-67
2023/03/19 00:31:11;;;;;;;;;;;;;;;-0.70;86.48;97813.71;110088;1244;69556;-68
2023/03/19 00:33:41;;;;;;;;;;;;;;;-0.69;86.49;97813.70;109957;1246;59729;-68
2023/03/19 00:36:11;;;;;;;;;;;;;;;-0.70;87.51;97815.24;110031;1245;59685;-67
2023/03/19 00:38:42;;;;;;;;;;;;;;;-0.72;84.50;97816.16;109933;1241;71219;-67
2023/03/19 00:41:13;;;;;;;;;;;;;;;-0.75;82.85;97813.98;110158;1244;68489;-68
2023/03/19 00:43:42;;;;;;;;;;;;;;;-0.77;84.82;97812.49;110118;1244;69114;-68
2023/03/19 00:46:13;;;;;;;;;;;;;;;-0.79;86.05;97812.89;110065;1244;59763;-68
2023/03/19 00:48:44;;;;;;;;;;;;;;;-0.86;87.63;97813.02;110170;1244;59703;-68
2023/03/19 00:51:14;;;;;;;;;;;;;;;-0.97;85.27;97812.41;110191;1244;71393;-68
2023/03/19 00:53:44;;;;;;;;;;;;;;;-1.10;84.65;97808.90;110139;1244;68430;-68
2023/03/19 00:56:13;;;;;;;;;;;;;;;-1.21;85.14;97808.77;110169;1245;68592;-68
2023/03/19 00:58:42;;;;;;;;;;;;;;;-1.33;85.47;97807.64;110139;1245;59950;-68
2023/03/19 01:01:14;;;;;;;;;;;;;;;-1.43;85.26;97805.26;110114;1244;59735;-68
2023/03/19 01:03:44;;;;;;;;;;;;;;;-1.52;84.78;97808.17;110123;1244;71797;-68
2023/03/19 01:06:13;;;;;;;;;;;;;;;-1.60;88.47;97809.50;110175;1244;68543;-68
2023/03/19 01:08:42;;;;;;;;;;;;;;;-1.64;90.47;97809.58;110135;1241;68503;-69
2023/03/19 01:11:13;;;;;;;;;;;;;;;-1.67;89.92;97810.48;110124;1244;59702;-68
2023/03/19 01:13:43;;;;;;;;;;;;;;;-1.67;91.93;97815.08;110137;1244;59757;-68
2023/03/19 01:16:13;;;;;;;;;;;;;;;-1.68;92.76;97814.23;110164;1243;71976;-69
2023/03/19 01:18:42;;;;;;;;;;;;;;;-1.68;93.35;97811.17;110163;1245;69261;-68
2023/03/19 01:21:13;;;;;;;;;;;;;;;-1.71;92.16;97810.73;110149;1241;68598;-69
2023/03/19 01:23:50;;;;;;;;;;;;;;;-1.75;89.96;97809.60;110114;1244;59666;-68
2023/03/19 01:26:22;;;;;;;;;;;;;;;-1.77;89.46;97812.38;110194;1241;59696;-67
2023/03/19 01:28:57;;;;;;;;;;;;;;;-1.81;90.48;97810.89;110076;1244;71285;-67
2023/03/19 01:31:28;;;;;;;;;;;;;;;-1.84;91.75;97812.14;110060;1245;68552;-67
2023/03/19 01:34:25;;;;;;;;;;;;;;;-1.87;91.61;97814.58;109690;1243;69926;-67
2023/03/19 01:36:58;;;;;;;;;;;;;;;-1.88;90.60;97812.73;110078;1244;59778;-69
2023/03/19 01:39:34;;;;;;;;;;;;;;;-1.89;91.44;97811.22;110163;1245;59778;-68
2023/03/19 01:42:11;;;;;;;;;;;;;;;-1.93;91.53;97813.32;110101;1244;71820;-68
2023/03/19 01:45:31;;;;;;;;;;;;;;;-1.97;88.45;97808.44;110129;1244;69076;-67
2023/03/19 01:48:28;;;;;;;;;;;;;;;-1.93;89.83;97804.42;109853;1242;68816;-67
2023/03/19 01:51:04;;;;;;;;;;;;;;;-1.84;89.75;97800.36;109918;1245;60150;-67
2023/03/19 01:54:00;;;;;;;;;;;;;;;-1.73;91.75;97798.13;109741;1244;59687;-68
2023/03/19 01:56:55;;;;;;;;;;;;;;;-1.66;90.06;97799.19;110108;1242;71793;-68
2023/03/19 01:59:50;;;;;;;;;;;;;;;-1.59;90.26;97803.67;109768;1244;69711;-68
2023/03/19 02:02:29;;;;;;;;;;;;;;;-1.62;88.23;97804.60;109747;1244;68599;-68
2023/03/19 02:05:02;;;;;;;;;;;;;;;-1.68;87.96;97802.46;109762;1244;59734;-68
2023/03/19 02:07:35;;;;;;;;;;;;;;;-1.72;88.81;97802.73;109870;1244;60093;-67
2023/03/19 02:10:07;;;;;;;;;;;;;;;-1.76;88.81;97802.60;109784;1243;70646;-67
2023/03/19 02:12:37;;;;;;;;;;;;;;;-1.81;88.38;97802.53;109820;1244;68322;-67
2023/03/19 02:15:09;;;;;;;;;;;;;;;-1.87;88.89;97805.02;110142;1244;69490;-68
2023/03/19 02:17:41;;;;;;;;;;;;;;;-1.93;89.05;97807.34;110186;1245;59696;-67
2023/03/19 02:20:15;;;;;;;;;;;;;;;-1.99;88.73;97808.99;110181;1244;59673;-67
2023/03/19 02:22:51;;;;;;;;;;;;;;;-2.06;88.42;97804.98;110209;1241;71838;-68
2023/03/19 02:25:29;;;;;;;;;;;;;;;-2.09;88.88;97807.59;110154;1244;69445;-68
2023/03/19 02:28:02;;;;;;;;;;;;;;;-2.12;89.12;97806.45;110075;1244;69295;-67
2023/03/19 02:30:33;;;;;;;;;;;;;;;-2.14;88.60;97805.46;109884;1246;59752;-67
2023/03/19 02:33:16;;;;;;;;;;;;;;;-2.16;89.58;97801.23;110147;1244;59647;-67
2023/03/19 02:35:49;;;;;;;;;;;;;;;-2.18;90.28;97802.80;110112;1244;70954;-68
2023/03/19 02:38:21;;;;;;;;;;;;;;;-2.21;91.10;97803.54;110077;1245;69117;-68
2023/03/19 02:40:51;;;;;;;;;;;;;;;-2.24;94.34;97805.95;110147;1245;69235;-68
2023/03/19 02:43:23;;;;;;;;;;;;;;;-2.27;95.05;97804.83;110099;1244;59757;-68
2023/03/19 02:45:54;;;;;;;;;;;;;;;-2.32;94.15;97803.70;110093;1244;59748;-68
2023/03/19 02:48:25;;;;;;;;;;;;;;;-2.35;95.21;97808.18;110031;1245;69573;-68
2023/03/19 02:50:58;;;;;;;;;;;;;;;-2.40;94.48;97808.44;109963;1244;68598;-67
2023/03/19 02:53:30;;;;;;;;;;;;;;;-2.44;94.23;97806.79;109846;1245;68582;-67
2023/03/19 02:56:02;;;;;;;;;;;;;;;-2.46;95.33;97809.36;109797;1244;59675;-68
2023/03/19 02:58:32;;;;;;;;;;;;;;;-2.46;97.40;97806.65;109955;1244;59657;-67
2023/03/19 03:01:03;;;;;;;;;;;;;;;-2.48;97.70;97810.27;109921;1244;71256;-68
2023/03/19 03:03:36;;;;;;;;;;;;;;;-2.52;97.71;97809.63;109823;1244;68355;-68
2023/03/19 03:06:08;;;;;;;;;;;;;;;-2.55;98.56;97808.82;110158;1242;69321;-67
2023/03/19 03:08:40;;;;;;;;;;;;;;;-2.59;98.15;97808.55;109830;1245;59672;-68
2023/03/19 03:11:13;;;;;;;;;;;;;;;-2.65;97.51;97809.14;109807;1244;59756;-68
2023/03/19 03:13:45;;;;;;;;;;;;;;;-2.71;97.66;97809.73;109796;1244;71385;-67
2023/03/19 03:16:17;;;;;;;;;;;;;;;-2.76;97.19;97808.60;109825;1242;69505;-67
2023/03/19 03:18:46;;;;;;;;;;;;;;;-2.81;96.79;97805.77;110086;1244;69219;-67
2023/03/19 03:21:20;;;;;;;;;;;;;;;-2.85;96.71;97804.45;110092;1243;59704;-67
2023/03/19 03:23:52;;;;;;;;;;;;;;;-2.88;97.57;97803.63;110085;1244;59631;-67
2023/03/19 03:26:23;;;;;;;;;;;;;;;-2.91;97.59;97800.95;110127;1246;70560;-67
2023/03/19 03:28:52;;;;;;;;;;;;;;;-2.93;97.19;97796.53;110100;1244;69165;-67
2023/03/19 03:31:23;;;;;;;;;;;;;;;-2.93;96.73;97799.95;110162;1242;69341;-67
2023/03/19 03:33:54;;;;;;;;;;;;;;;-2.95;96.80;97800.33;110089;1244;59646;-67
2023/03/19 03:36:24;;;;;;;;;;;;;;;-2.96;97.92;97802.73;110093;1244;60205;-69
2023/03/19 03:38:54;;;;;;;;;;;;;;;-3.00;96.56;97801.42;110101;1244;71708;-68
2023/03/19 03:41:25;;;;;;;;;;;;;;;-3.03;92.63;97799.75;109861;1244;68300;-68
2023/03/19 03:43:56;;;;;;;;;;;;;;;-3.03;91.50;97798.39;109950;1243;68514;-69
2023/03/19 03:46:27;;;;;;;;;;;;;;;-3.03;92.85;97802.13;110158;1244;59669;-68
2023/03/19 03:48:57;;;;;;;;;;;;;;;-3.03;91.43;97804.85;110152;1242;59714;-68
2023/03/19 03:51:27;;;;;;;;;;;;;;;-3.01;93.24;97806.19;110075;1241;71189;-69
2023/03/19 03:53:58;;;;;;;;;;;;;;;-3.03;93.09;97811.16;110147;1244;69237;-68
2023/03/19 03:56:28;;;;;;;;;;;;;;;-3.08;92.77;97811.22;109928;1244;69201;-69
2023/03/19 03:58:58;;;;;;;;;;;;;;;-3.12;92.66;97809.23;109895;1245;59754;-67
2023/03/19 04:01:28;;;;;;;;;;;;;;;-3.15;92.77;97804.84;109957;1245;59698;-67
2023/03/19 04:03:59;;;;;;;;;;;;;;;-3.18;92.47;97806.76;109828;1245;71055;-67
2023/03/19 04:06:30;;;;;;;;;;;;;;;-3.20;94.03;97807.62;110111;1244;69405;-67
2023/03/19 04:09:19;;;;;;;;;;;;;;;-3.21;96.62;97805.59;110098;1244;69930;-67
2023/03/19 04:11:50;;;;;;;;;;;;;;;-3.21;97.77;97804.90;109828;1245;60032;-67
2023/03/19 04:14:21;;;;;;;;;;;;;;;-3.21;98.08;97803.55;110196;1242;59702;-67
2023/03/19 04:16:51;;;;;;;;;;;;;;;-3.22;98.83;97801.68;110135;1241;70450;-67
2023/03/19 04:19:21;;;;;;;;;;;;;;;-3.23;98.50;97802.20;110106;1244;69119;-67
2023/03/19 04:21:51;;;;;;;;;;;;;;;-3.24;98.39;97798.96;110092;1244;69308;-67
2023/03/19 04:24:22;;;;;;;;;;;;;;;-3.25;97.97;97798.82;110101;1244;59753;-67
2023/03/19 04:26:52;;;;;;;;;;;;;;;-3.23;98.24;97798.80;110140;1244;59679;-67
2023/03/19 04:29:22;;;;;;;;;;;;;;;-3.22;99.94;97800.83;110072;1241;70645;-67
2023/03/19 04:31:51;;;;;;;;;;;;;;;-3.22;99.88;97805.44;110144;1241;69088;-67
2023/03/19 04:34:21;;;;;;;;;;;;;;;-3.21;100.00;97804.23;110100;1244;69351;-67
2023/03/19 04:36:51;;;;;;;;;;;;;;;-3.22;100.00;97803.05;110013;1244;59773;-67
2023/03/19 04:39:23;;;;;;;;;;;;;;;-3.23;99.96;97803.40;110133;1242;59650;-68
2023/03/19 04:41:53;;;;;;;;;;;;;;;-3.23;99.85;97803.05;109808;1243;72026;-67
2023/03/19 04:44:30;;;;;;;;;;;;;;;-3.20;100.00;97808.63;109903;1244;69126;-67
2023/03/19 04:47:01;;;;;;;;;;;;;;;-3.17;100.00;97803.31;110143;1245;70336;-67
2023/03/19 04:49:35;;;;;;;;;;;;;;;-3.13;100.00;97803.61;110073;1242;59691;-68
2023/03/19 04:52:05;;;;;;;;;;;;;;;-3.10;100.00;97806.81;109955;1245;59640;-67
2023/03/19 04:54:35;;;;;;;;;;;;;;;-3.08;100.00;97805.61;110075;1242;70532;-67
2023/03/19 04:57:04;;;;;;;;;;;;;;;-3.04;100.00;97805.20;110039;1244;69731;-67
2023/03/19 04:59:35;;;;;;;;;;;;;;;-2.93;100.00;97803.20;109889;1244;70062;-67
2023/03/19 05:02:05;;;;;;;;;;;;;;;-2.79;99.77;97798.06;110053;1244;59702;-68
2023/03/19 05:04:36;;;;;;;;;;;;;;;-2.55;99.38;97798.92;110121;1244;59754;-68
2023/03/19 05:07:09;;;;;;;;;;;;;;;-2.30;98.13;97805.04;110077;1244;70571;-69
2023/03/19 05:09:39;;;;;;;;;;;;;;;-2.09;96.09;97804.18;109820;1246;67758;-69
2023/03/19 05:12:10;;;;;;;;;;;;;;;-1.88;94.24;97808.62;110140;1245;69946;-68
2023/03/19 05:14:45;;;;;;;;;;;;;;;-1.67;92.93;97804.68;109986;1244;59686;-68
2023/03/19 05:17:24;;;;;;;;;;;;;;;-1.45;91.80;97807.17;110001;1244;59705;-69
2023/03/19 05:20:10;;;;;;;;;;;;;;;-1.26;90.22;97809.38;110082;1243;71603;-67
2023/03/19 05:22:43;;;;;;;;;;;;;;;-1.06;89.44;97811.04;109707;1245;70288;-69
2023/03/19 05:25:13;;;;;;;;;;;;;;;-0.73;89.54;97810.19;110115;1241;68609;-67
2023/03/19 05:27:42;;;;;;;;;;;;;;;-0.51;86.86;97815.36;110105;1242;59711;-69
2023/03/19 05:30:17;;;;;;;;;;;;;;;-0.28;85.11;97819.80;110184;1244;59660;-69
2023/03/19 05:33:04;;;;;;;;;;;;;;;-0.07;84.09;97818.63;110093;1244;72061;-69
2023/03/19 05:35:43;;;;;;;;;;;;;;;0.19;82.61;97818.16;110078;1243;68078;-67
2023/03/19 05:38:19;;;;;;;;;;;;;;;0.38;81.55;97819.06;109987;1244;69489;-68
2023/03/19 05:40:54;;;;;;;;;;;;;;;0.73;81.42;97815.91;109923;1245;59695;-68
2023/03/19 05:43:28;;;;;;;;;;;;;;;1.16;81.74;97817.11;110042;1244;59687;-68
2023/03/19 05:45:58;;;;;;;;;;;;;;;1.54;83.31;97816.83;110082;1244;71758;-68
2023/03/19 05:48:29;;;;;;;;;;;;;;;1.89;83.37;97820.41;109920;1245;69266;-70
2023/03/19 05:50:58;;;;;;;;;;;;;;;2.02;79.32;97820.33;110018;1244;69653;-68
2023/03/19 05:53:33;;;;;;;;;;;;;;;2.00;74.60;97822.48;110014;1244;59705;-69
2023/03/19 05:56:31;;;;;;;;;;;;;;;2.32;75.58;97823.14;109530;1250;59817;-68
2023/03/19 05:59:21;;;;;;;;;;;;;;;2.74;78.37;97827.56;109936;1243;71621;-68
2023/03/19 06:01:59;;;;;;;;;;;;;;;3.03;75.13;97828.60;109911;1244;69969;-70
2023/03/19 06:04:28;;;;;;;;;;;;;;;3.29;72.52;97829.39;110070;1242;69257;-69
2023/03/19 06:06:58;;;;;;;;;;;;;;;3.46;71.46;97832.71;110199;1244;59747;-69
2023/03/19 06:09:27;;;;;;;;;;;;;;;3.57;68.76;97831.94;110145;1243;59661;-69
2023/03/19 06:11:57;;;;;;;;;;;;;;;3.79;68.15;97841.48;110095;1244;71960;-68
2023/03/19 06:14:49;;;;;;;;;;;;;;;4.14;68.93;97840.93;109901;1244;69627;-69
2023/03/19 06:17:37;;;;;;;;;;;;;;;4.65;70.54;97843.13;109913;1241;69656;-69
2023/03/19 06:20:09;;;;;;;;;;;;;;;5.11;72.48;97842.04;110129;1241;59722;-69
2023/03/19 06:22:38;;;;;;;;;;;;;;;5.47;68.51;97838.53;110127;1245;59785;-67
2023/03/19 06:25:08;;;;;;;;;;;;;;;5.70;64.03;97844.57;110131;1244;71803;-67
2023/03/19 06:27:37;;;;;;;;;;;;;;;5.72;61.96;97846.91;109870;1244;69736;-67
2023/03/19 06:30:24;;;;;;;;;;;;;;;5.32;62.10;97842.84;109893;1244;69838;-67
2023/03/19 06:32:55;;;;;;;;;;;;;;;5.47;62.32;97844.08;109915;1244;59679;-68
2023/03/19 06:35:23;;;;;;;;;;;;;;;5.89;62.69;97846.09;110096;1245;59766;-68
2023/03/19 06:37:53;;;;;;;;;;;;;;;6.21;64.38;97843.71;109963;1244;72033;-69
2023/03/19 06:40:21;;;;;;;;;;;;;;;6.54;63.10;97844.52;110012;1244;68735;-69
2023/03/19 06:42:51;;;;;;;;;;;;;;;6.84;61.14;97845.12;110162;1245;69822;-69
2023/03/19 06:45:20;;;;;;;;;;;;;;;6.92;58.96;97841.07;109909;1244;59784;-69
2023/03/19 06:47:49;;;;;;;;;;;;;;;7.13;58.54;97840.85;109959;1244;59730;-68
2023/03/19 06:50:20;;;;;;;;;;;;;;;7.09;57.10;97842.10;109928;1243;71988;-69
2023/03/19 06:52:49;;;;;;;;;;;;;;;7.28;55.64;97833.46;109822;1244;69315;-68
2023/03/19 06:55:19;;;;;;;;;;;;;;;7.21;54.40;97835.05;109764;1244;68739;-68
2023/03/19 06:57:49;;;;;;;;;;;;;;;7.34;55.28;97833.84;109880;1244;59761;-67
2023/03/19 07:00:18;;;;;;;;;;;;;;;7.97;55.29;97841.86;109951;1244;59779;-68
2023/03/19 07:02:46;;;;;;;;;;;;;;;7.86;53.51;97840.21;110161;1244;71951;-67
2023/03/19 07:05:15;;;;;;;;;;;;;;;7.98;53.31;97843.38;110149;1244;69250;-68
2023/03/19 07:07:44;;;;;;;;;;;;;;;8.36;52.22;97840.58;110092;1243;69373;-68
2023/03/19 07:10:17;;;;;;;;;;;;;;;8.28;52.23;97838.73;110069;1244;59720;-68
2023/03/19 07:12:45;;;;;;;;;;;;;;;8.32;51.69;97844.62;110027;1244;59685;-68
2023/03/19 07:15:14;;;;;;;;;;;;;;;8.41;51.92;97846.54;110159;1241;70645;-68
2023/03/19 07:17:45;;;;;;;;;;;;;;;8.56;51.25;97843.93;110114;1243;69693;-68
2023/03/19 07:20:13;;;;;;;;;;;;;;;8.70;50.51;97846.66;110107;1242;68498;-67
2023/03/19 07:22:42;;;;;;;;;;;;;;;9.05;49.81;97842.64;110199;1244;60118;-68
2023/03/19 07:25:10;;;;;;;;;;;;;;;9.16;49.75;97845.98;110110;1241;59656;-68
2023/03/19 07:27:39;;;;;;;;;;;;;;;9.54;50.23;97845.94;110122;1244;70952;-68
2023/03/19 07:30:08;;;;;;;;;;;;;;;10.01;48.57;97844.88;110156;1244;69203;-68
2023/03/19 07:32:37;;;;;;;;;;;;;;;9.98;48.01;97844.60;110160;1244;69245;-68
2023/03/19 07:35:06;;;;;;;;;;;;;;;10.19;47.93;97841.28;110234;1244;59685;-67
2023/03/19 07:37:35;;;;;;;;;;;;;;;10.24;47.74;97841.49;110099;1243;59701;-67
2023/03/19 07:40:04;;;;;;;;;;;;;;;10.32;47.46;97838.20;110168;1241;70961;-68
2023/03/19 07:42:35;;;;;;;;;;;;;;;10.29;47.32;97840.33;110230;1242;69028;-68
2023/03/19 07:45:04;;;;;;;;;;;;;;;10.30;47.63;97837.13;110195;1244;69286;-67
2023/03/19 07:47:33;;;;;;;;;;;;;;;10.74;46.94;97835.84;110189;1244;59642;-67
2023/03/19 07:50:02;;;;;;;;;;;;;;;11.31;46.07;97828.10;110042;1244;59704;-67
2023/03/19 07:52:31;;;;;;;;;;;;;;;11.38;45.34;97825.67;109949;1244;71940;-68
2023/03/19 07:55:00;;;;;;;;;;;;;;;11.83;44.53;97828.14;110100;1245;69196;-67
2023/03/19 07:57:31;;;;;;;;;;;;;;;12.47;43.89;97824.52;110187;1244;68214;-67
2023/03/19 08:00:00;;;;;;;;;;;;;;;13.06;41.27;97819.27;110117;1244;59744;-67
2023/03/19 08:02:30;;;;;;;;;;;;;;;13.03;40.94;97816.36;110080;1244;59685;-69
2023/03/19 08:05:00;;;;;;;;;;;;;;;13.11;40.94;97812.92;110318;1241;72000;-69
2023/03/19 08:07:30;;;;;;;;;;;;;;;13.55;41.76;97808.08;110258;1241;69032;-68
2023/03/19 08:09:59;;;;;;;;;;;;;;;13.99;39.08;97804.80;110132;1244;70031;-67
2023/03/19 08:12:27;;;;;;;;;;;;;;;14.54;39.14;97805.75;109958;1243;59780;-68
2023/03/19 08:14:56;;;;;;;;;;;;;;;15.05;37.26;97805.36;110135;1244;60082;-67
2023/03/19 08:17:26;;;;;;;;;;;;;;;15.19;36.01;97799.77;110138;1244;71394;-67
2023/03/19 08:19:54;;;;;;;;;;;;;;;15.03;36.30;97800.96;110149;1244;69223;-67
2023/03/19 08:22:23;;;;;;;;;;;;;;;15.25;36.11;97795.05;110068;1243;68551;-68
2023/03/19 08:24:52;;;;;;;;;;;;;;;15.02;36.36;97799.97;110026;1244;59763;-68
2023/03/19 08:27:20;;;;;;;;;;;;;;;15.16;36.87;97798.27;110144;1244;59709;-67
2023/03/19 08:29:49;;;;;;;;;;;;;;;15.73;35.50;97796.69;110104;1244;71798;-68
2023/03/19 08:32:18;;;;;;;;;;;;;;;15.96;34.26;97794.50;110122;1244;68484;-68
2023/03/19 08:34:47;;;;;;;;;;;;;;;15.45;35.21;97787.67;110086;1245;69624;-67
2023/03/19 08:37:16;;;;;;;;;;;;;;;15.31;35.06;97790.66;110004;1243;59802;-68
2023/03/19 08:39:45;;;;;;;;;;;;;;;15.67;34.57;97788.24;109898;1244;59753;-67
2023/03/19 08:42:14;;;;;;;;;;;;;;;16.06;33.89;97790.45;109926;1244;71345;-68
2023/03/19 08:44:42;;;;;;;;;;;;;;;15.64;33.69;97792.26;110037;1244;69216;-69
2023/03/19 08:47:11;;;;;;;;;;;;;;;15.08;34.66;97789.50;110072;1244;69275;-67
2023/03/19 08:49:39;;;;;;;;;;;;;;;15.32;35.15;97791.63;110084;1241;59696;-67
2023/03/19 08:52:08;;;;;;;;;;;;;;;15.49;34.95;97785.30;109994;1244;59680;-67
2023/03/19 08:54:37;;;;;;;;;;;;;;;16.05;34.21;97783.85;110190;1244;71468;-67
2023/03/19 08:57:05;;;;;;;;;;;;;;;15.62;34.03;97780.65;110097;1244;69611;-67
2023/03/19 08:59:35;;;;;;;;;;;;;;;16.13;33.76;97778.38;110082;1245;69925;-68
2023/03/19 09:02:03;;;;;;;;;;;;;;;16.01;34.00;97776.15;110147;1243;59697;-68
2023/03/19 09:04:37;;;;;;;;;;;;;;;17.03;32.43;97766.89;110072;1244;59659;-67
2023/03/19 09:07:06;;;;;;;;;;;;;;;17.22;31.37;97758.70;110028;1242;69488;-68
2023/03/19 09:09:35;;;;;;;;;;;;;;;16.37;31.87;97763.80;110037;1243;69129;-67
2023/03/19 09:12:04;;;;;;;;;;;;;;;15.50;33.69;97761.13;110022;1241;69138;-67
2023/03/19 09:14:34;;;;;;;;;;;;;;;15.55;34.01;97764.02;110136;1243;59764;-67
2023/03/19 09:17:03;;;;;;;;;;;;;;;15.92;33.52;97762.33;110111;1243;59627;-67
2023/03/19 09:19:32;;;;;;;;;;;;;;;16.57;32.61;97758.89;110154;1244;72212;-68
2023/03/19 09:22:01;;;;;;;;;;;;;;;17.22;31.20;97755.50;109951;1244;69839;-69
2023/03/19 09:24:29;;;;;;;;;;;;;;;17.34;31.01;97751.04;110128;1244;68259;-69
2023/03/19 09:26:58;;;;;;;;;;;;;;;17.94;31.37;97751.98;109844;1245;59609;-69
2023/03/19 09:29:27;;;;;;;;;;;;;;;18.39;30.36;97751.45;110050;1244;59701;-71
2023/03/19 09:31:55;;;;;;;;;;;;;;;18.87;29.24;97749.88;109821;1244;71177;-69
2023/03/19 09:34:24;;;;;;;;;;;;;;;19.82;29.18;97752.58;110130;1241;69999;-69
2023/03/19 09:36:53;;;;;;;;;;;;;;;20.25;27.87;97748.89;110186;1243;70000;-70
2023/03/19 09:39:22;;;;;;;;;;;;;;;20.43;27.67;97741.60;110117;1244;59747;-69
2023/03/19 09:42:09;;;;;;;;;;;;;;;20.99;26.55;97737.90;110170;1244;59677;-69
2023/03/19 09:44:42;;;;;;;;;;;;;;;20.40;27.34;97735.22;110056;1244;71506;-68
2023/03/19 09:47:14;;;;;;;;;;;;;;;21.25;27.22;97733.36;109917;1243;69827;-68
2023/03/19 09:49:46;;;;;;;;;;;;;;;21.21;25.69;97730.34;109863;1242;69168;-68
2023/03/19 09:52:26;;;;;;;;;;;;;;;20.43;26.60;97729.77;109822;1245;59758;-68
2023/03/19 09:54:57;;;;;;;;;;;;;;;20.54;26.44;97726.89;109903;1244;59641;-68
2023/03/19 09:57:28;;;;;;;;;;;;;;;20.58;26.03;97724.48;109844;1242;71965;-68
2023/03/19 09:59:57;;;;;;;;;;;;;;;20.79;26.34;97723.42;109878;1244;69256;-69
2023/03/19 10:02:26;;;;;;;;;;;;;;;21.19;25.65;97719.55;109818;1244;69174;-68
2023/03/19 10:05:05;;;;;;;;;;;;;;;20.54;25.50;97718.15;109890;1244;59750;-68
2023/03/19 10:07:39;;;;;;;;;;;;;;;19.64;26.64;97719.52;109854;1244;59688;-69
2023/03/19 10:10:20;;;;;;;;;;;;;;;20.06;26.71;97717.30;109845;1244;71328;-69
2023/03/19 10:12:49;;;;;;;;;;;;;;;20.32;26.80;97711.54;109995;1244;70290;-70
2023/03/19 10:15:26;;;;;;;;;;;;;;;20.75;26.32;97703.89;109872;1244;70080;-69
2023/03/19 10:17:57;;;;;;;;;;;;;;;21.16;25.88;97699.04;109878;1244;59740;-68
2023/03/19 10:20:32;;;;;;;;;;;;;;;21.83;25.13;97701.04;109824;1247;59697;-68
2023/03/19 10:23:07;;;;;;;;;;;;;;;21.34;26.04;97704.02;109828;1244;71342;-67
2023/03/19 10:25:38;;;;;;;;;;;;;;;21.78;26.45;97698.69;109869;1245;69816;-69
2023/03/19 10:28:15;;;;;;;;;;;;;;;22.34;26.14;97699.73;109844;1244;68086;-69
2023/03/19 10:30:49;;;;;;;;;;;;;;;23.09;24.62;97696.59;109818;1243;59679;-70
2023/03/19 10:33:22;;;;;;;;;;;;;;;23.23;23.62;97690.77;109962;1244;59688;-69
2023/03/19 10:36:01;;;;;;;;;;;;;;;23.28;23.53;97693.77;107648;1250;2874507;-69
2023/03/19 10:38:32;;;;;;;;;;;;;;;22.86;24.13;97690.44;109795;1244;69185;-69
2023/03/19 10:41:15;;;;;;;;;;;;;;;23.05;24.13;97685.29;109874;1244;69646;-70
2023/03/19 10:43:48;;;;;;;;;;;;;;;23.45;24.52;97682.11;109940;1245;59759;-68
2023/03/19 10:46:16;;;;;;;;;;;;;;;23.79;24.57;97678.98;109967;1245;59714;-70
2023/03/19 10:48:45;;;;;;;;;;;;;;;23.75;24.49;97673.27;110023;1244;71554;-70
2023/03/19 10:51:15;;;;;;;;;;;;;;;23.57;24.40;97667.23;109860;1244;69193;-70
2023/03/19 10:53:44;;;;;;;;;;;;;;;23.17;24.72;97664.95;109919;1244;69671;-69
2023/03/19 10:56:21;;;;;;;;;;;;;;;23.48;24.14;97662.94;109856;1244;59663;-69
2023/03/19 10:58:56;;;;;;;;;;;;;;;23.75;23.68;97660.63;110037;1244;59760;-69
2023/03/19 11:01:31;;;;;;;;;;;;;;;24.55;22.93;97652.20;109936;1244;70640;-69
2023/03/19 11:04:10;;;;;;;;;;;;;;;24.43;22.28;97651.85;110177;1245;69696;-66
2023/03/19 11:06:39;;;;;;;;;;;;;;;24.76;23.01;97648.98;109927;1244;69877;-70
2023/03/19 11:09:07;;;;;;;;;;;;;;;25.39;21.88;97646.27;109797;1247;59689;-70
2023/03/19 11:11:44;;;;;;;;;;;;;;;24.31;21.89;97648.33;110023;1244;59650;-69
2023/03/19 11:14:19;;;;;;;;;;;;;;;24.63;22.31;97642.16;109997;1244;70647;-68
2023/03/19 11:17:01;;;;;;;;;;;;;;;23.59;23.33;97644.52;109849;1245;69800;-69
2023/03/19 11:19:37;;;;;;;;;;;;;;;23.54;23.79;97642.89;109897;1245;69926;-69
2023/03/19 11:22:08;;;;;;;;;;;;;;;23.91;22.72;97643.38;109977;1244;59698;-68
2023/03/19 11:24:38;;;;;;;;;;;;;;;23.50;22.97;97641.75;109903;1244;59678;-69
2023/03/19 11:27:08;;;;;;;;;;;;;;;23.01;22.80;97635.30;110077;1244;71236;-69
2023/03/19 11:29:39;;;;;;;;;;;;;;;23.01;23.05;97630.77;109884;1245;69861;-69
2023/03/19 11:32:21;;;;;;;;;;;;;;;23.09;22.05;97629.09;110022;1244;69107;-69
2023/03/19 11:35:06;;;;;;;;;;;;;;;22.82;23.12;97622.16;109961;1244;59695;-69
2023/03/19 11:37:53;;;;;;;;;;;;;;;23.38;22.04;97620.64;109852;1244;59709;-69
2023/03/19 11:40:35;;;;;;;;;;;;;;;23.50;22.00;97618.14;110025;1243;71176;-69
2023/03/19 11:43:05;;;;;;;;;;;;;;;22.90;22.17;97606.67;110038;1244;69284;-69
2023/03/19 11:45:43;;;;;;;;;;;;;;;22.70;22.29;97607.38;109999;1243;69890;-69
2023/03/19 11:48:31;;;;;;;;;;;;;;;22.35;22.91;97601.95;110009;1244;59685;-69
2023/03/19 11:51:07;;;;;;;;;;;;;;;23.03;22.97;97599.46;109908;1244;59714;-69
2023/03/19 11:53:52;;;;;;;;;;;;;;;23.82;22.40;97598.90;109807;1244;71152;-70
2023/03/19 11:56:28;;;;;;;;;;;;;;;24.65;21.47;97588.51;109818;1244;68921;-68
2023/03/19 11:59:07;;;;;;;;;;;;;;;25.05;21.62;97588.16;109754;1244;68799;-69
2023/03/19 12:01:54;;;;;;;;;;;;;;;25.24;20.75;97585.95;109775;1244;59683;-69
2023/03/19 12:04:24;;;;;;;;;;;;;;;24.79;21.69;97583.48;109788;1244;59748;-68
2023/03/19 12:06:57;;;;;;;;;;;;;;;25.48;20.72;97587.67;109786;1242;71955;-69
2023/03/19 12:09:56;;;;;;;;;;;;;;;25.08;21.13;97579.94;109869;1245;69070;-70
2023/03/19 12:12:40;;;;;;;;;;;;;;;25.39;21.05;97576.77;109806;1243;69860;-70
2023/03/19 12:15:20;;;;;;;;;;;;;;;25.44;19.81;97578.15;109853;1244;59732;-70
2023/03/19 12:17:52;;;;;;;;;;;;;;;26.02;20.26;97575.39;109962;1244;59751;-70
2023/03/19 12:20:24;;;;;;;;;;;;;;;26.02;19.69;97572.45;109823;1244;71472;-68
2023/03/19 12:22:56;;;;;;;;;;;;;;;26.34;19.67;97567.69;109886;1244;69769;-70
2023/03/19 12:25:33;;;;;;;;;;;;;;;26.34;19.23;97563.84;110002;1244;70071;-69
2023/03/19 12:28:17;;;;;;;;;;;;;;;25.64;20.19;97562.30;109898;1244;59752;-70
2023/03/19 12:30:46;;;;;;;;;;;;;;;25.40;19.33;97559.29;109818;1244;59699;-69
2023/03/19 12:33:29;;;;;;;;;;;;;;;25.86;19.55;97553.54;110083;1244;71477;-69
2023/03/19 12:35:58;;;;;;;;;;;;;;;26.17;19.55;97556.58;110066;1244;69242;-70
2023/03/19 12:38:30;;;;;;;;;;;;;;;27.20;19.40;97549.04;109826;1244;69414;-69
2023/03/19 12:41:02;;;;;;;;;;;;;;;26.93;18.34;97545.42;109906;1242;59711;-70
2023/03/19 12:43:35;;;;;;;;;;;;;;;27.03;18.42;97543.90;109776;1244;59685;-69
2023/03/19 12:46:12;;;;;;;;;;;;;;;27.36;17.76;97544.90;109925;1244;70705;-70
2023/03/19 12:48:48;;;;;;;;;;;;;;;26.37;17.96;97537.11;109811;1244;68699;-69
2023/03/19 12:51:19;;;;;;;;;;;;;;;25.40;18.56;97534.65;109763;1245;69243;-69
2023/03/19 12:53:55;;;;;;;;;;;;;;;24.60;19.22;97532.19;109822;1242;59711;-71
2023/03/19 12:56:59;;;;;;;;;;;;;;;24.57;20.59;97531.17;109774;1244;59731;-70
2023/03/19 12:59:43;;;;;;;;;;;;;;;25.26;19.16;97528.64;109465;1250;71360;-69
2023/03/19 13:02:24;;;;;;;;;;;;;;;25.49;18.98;97523.23;109790;1245;69079;-70
2023/03/19 13:05:13;;;;;;;;;;;;;;;25.27;18.78;97524.45;109834;1244;69267;-70
2023/03/19 13:07:45;;;;;;;;;;;;;;;25.05;18.84;97523.34;109779;1243;59769;-68